Current Conditions
Mostly Clear
Conditions



Pressure
1010.92 (hPa) - 29.85 (inHG)
Visibility

10.0 (km) - 6.2 (miles)
Temperature
30  °C
Temperature
11  °C
Dewpoint
31  %
 Humidity
Wind Speed
11  km/h
6  kts
7  mph
3.1  m/s
Wind Direction
N
45°
E
90°
135°
S
180°
225°
W
270°
315°
 340°

North North
West
Airport Data
LGEL
Elefsis Airport
Metar :LGEL 111720Z 34006KT CAVOK 30/11 Q1011
Thu 11th August 20:20 pm
Raw Metar Info
Raw METAR is the most common format in the world for the transmission of observational weather data. It is highly standardized through the International Civil Aviation Organization (ICAO), which allows it to be understood throughout most of the world.
API Info
Data Provided by
https://www.checkwx.com/weather/LGEL

Aviation Weather providing METAR, TAF, AIRMET, SIGMET and OUTLOOK Weather Reports
© Info
CSS/SVG/PHP scripts were developed by weather34 for use in the weather34 template © 2015-2022

Guide Info provided by Metar-Wikipedia